Time;durP1;ratioP1;P1;durP2;ratioP2;P2;SDS_P1;SDS_P2;PMS_P1;PMS_P2;Temp;Humidity;BMP_temperature;BMP_pressure;BME280_temperature;BME280_humidity;BME280_pressure;Samples;Min_cycle;Max_cycle;Signal;HPM_P1;HPM_P2
2021/01/30 00:01:53;;;;;;;3.63;0.45;;;;;;;;;;5056720;28;20107;-39
2021/01/30 00:04:20;;;;;;;5.35;0.65;;;;;;;;;;5051997;28;20025;-38
2021/01/30 00:06:51;;;;;;;6.22;1.45;;;;;;;;;;5051149;28;20090;-40
2021/01/30 00:09:19;;;;;;;5.18;1.30;;;;;;;;;;5049052;28;20032;-40
2021/01/30 00:11:50;;;;;;;4.70;2.85;;;;;;;;;;5049198;28;20040;-40
2021/01/30 00:14:21;;;;;;;23.15;3.33;;;;;;;;;;5054236;28;20564;-40
2021/01/30 00:16:48;;;;;;;36.60;3.28;;;;;;;;;;5054409;28;20112;-41
2021/01/30 00:19:16;;;;;;;18.17;1.13;;;;;;;;;;5046537;28;20038;-41
2021/01/30 00:21:49;;;;;;;2.47;0.50;;;;;;;;;;5052905;28;20029;-39
2021/01/30 00:24:16;;;;;;;5.22;0.57;;;;;;;;;;5034611;28;20057;-39
2021/01/30 00:26:43;;;;;;;9.35;0.98;;;;;;;;;;5034120;28;20025;-40
2021/01/30 00:29:13;;;;;;;8.43;2.25;;;;;;;;;;5016211;28;20032;-45
2021/01/30 00:31:40;;;;;;;10.13;1.48;;;;;;;;;;5047333;28;20029;-40
2021/01/30 00:34:07;;;;;;;7.30;2.30;;;;;;;;;;5053518;28;20017;-41
2021/01/30 00:36:34;;;;;;;15.35;1.83;;;;;;;;;;5035634;28;20553;-42
2021/01/30 00:39:01;;;;;;;11.88;1.98;;;;;;;;;;5051506;28;20116;-45
2021/01/30 00:41:28;;;;;;;15.73;1.73;;;;;;;;;;5053336;28;20013;-42
2021/01/30 00:43:55;;;;;;;11.30;1.90;;;;;;;;;;5032602;28;20469;-49
2021/01/30 00:46:22;;;;;;;15.32;2.35;;;;;;;;;;5047424;28;20107;-47
2021/01/30 00:48:50;;;;;;;7.15;1.60;;;;;;;;;;5047464;28;20017;-43
2021/01/30 00:51:19;;;;;;;11.90;1.80;;;;;;;;;;5051576;28;20029;-49
2021/01/30 00:53:46;;;;;;;12.38;2.53;;;;;;;;;;5046884;28;20017;-47
2021/01/30 00:56:14;;;;;;;12.77;2.10;;;;;;;;;;5050796;28;20090;-41
2021/01/30 00:58:42;;;;;;;10.02;2.80;;;;;;;;;;5051914;28;20098;-42
2021/01/30 01:01:09;;;;;;;12.15;3.08;;;;;;;;;;5052913;28;20033;-40
2021/01/30 01:03:36;;;;;;;11.82;3.05;;;;;;;;;;5051901;28;20463;-38
2021/01/30 01:06:04;;;;;;;12.18;2.90;;;;;;;;;;5051601;28;20076;-41
2021/01/30 01:08:31;;;;;;;10.23;3.85;;;;;;;;;;5052823;28;20024;-45
2021/01/30 01:10:58;;;;;;;17.85;4.78;;;;;;;;;;5049035;28;20087;-42
2021/01/30 01:13:26;;;;;;;16.02;4.63;;;;;;;;;;5048048;28;20028;-45
2021/01/30 01:15:53;;;;;;;10.90;4.10;;;;;;;;;;5033195;28;20037;-48
2021/01/30 01:18:21;;;;;;;10.70;4.10;;;;;;;;;;5052127;28;20078;-47
2021/01/30 01:20:48;;;;;;;13.27;5.25;;;;;;;;;;5048552;28;20044;-43
2021/01/30 01:23:15;;;;;;;19.73;4.40;;;;;;;;;;5047934;28;20053;-46
2021/01/30 01:25:42;;;;;;;11.43;4.78;;;;;;;;;;5052061;28;20395;-40
2021/01/30 01:28:09;;;;;;;11.48;4.72;;;;;;;;;;5052175;28;20017;-44
2021/01/30 01:30:36;;;;;;;10.82;3.63;;;;;;;;;;5051330;28;20096;-44
2021/01/30 01:33:04;;;;;;;13.68;4.85;;;;;;;;;;5051839;28;20033;-40
2021/01/30 01:35:32;;;;;;;8.75;3.97;;;;;;;;;;5052306;28;20079;-41
2021/01/30 01:37:59;;;;;;;10.00;4.75;;;;;;;;;;5052313;28;20036;-44
2021/01/30 01:40:32;;;;;;;10.93;5.40;;;;;;;;;;5052838;28;20025;-41
2021/01/30 01:43:03;;;;;;;19.00;11.85;;;;;;;;;;5052797;28;20005;-41
2021/01/30 01:45:30;;;;;;;21.42;10.07;;;;;;;;;;5051894;28;20028;-40
2021/01/30 01:47:58;;;;;;;11.07;6.72;;;;;;;;;;5049026;28;20044;-47
2021/01/30 01:50:46;;;;;;;9.10;5.15;;;;;;;;;;5045269;28;20079;-43
2021/01/30 01:53:18;;;;;;;10.95;4.30;;;;;;;;;;5050337;28;20083;-41
2021/01/30 01:55:52;;;;;;;8.73;3.78;;;;;;;;;;5049099;28;20449;-43
2021/01/30 01:58:20;;;;;;;8.27;3.45;;;;;;;;;;5048505;28;20021;-39
2021/01/30 02:00:47;;;;;;;8.23;2.45;;;;;;;;;;5050446;28;20549;-39
2021/01/30 02:03:15;;;;;;;3.38;1.80;;;;;;;;;;5050777;28;20021;-39
2021/01/30 02:05:42;;;;;;;4.88;1.05;;;;;;;;;;5050531;28;20025;-41
2021/01/30 02:08:11;;;;;;;1.77;0.90;;;;;;;;;;5050130;28;20051;-39
2021/01/30 02:10:42;;;;;;;1.50;0.70;;;;;;;;;;5051110;28;20024;-41
2021/01/30 02:13:13;;;;;;;5.47;1.17;;;;;;;;;;5051143;28;20033;-39
2021/01/30 02:15:42;;;;;;;4.00;1.70;;;;;;;;;;5051467;28;20507;-42
2021/01/30 02:18:36;;;;;;;10.80;2.20;;;;;;;;;;5048252;28;20120;-40
2021/01/30 02:21:21;;;;;;;4.90;2.20;;;;;;;;;;5027356;28;20136;-40
2021/01/30 02:24:03;;;;;;;4.03;2.00;;;;;;;;;;5048701;28;20024;-42
2021/01/30 02:26:33;;;;;;;4.63;2.58;;;;;;;;;;5051310;28;20086;-40
2021/01/30 02:29:11;;;;;;;5.97;1.90;;;;;;;;;;5050542;28;20481;-46
2021/01/30 02:31:43;;;;;;;3.75;2.15;;;;;;;;;;5051702;28;20023;-42
2021/01/30 02:34:19;;;;;;;5.22;2.72;;;;;;;;;;5051047;28;20017;-39
2021/01/30 02:36:49;;;;;;;6.95;2.35;;;;;;;;;;5050450;28;20052;-58
2021/01/30 02:39:16;;;;;;;4.25;2.03;;;;;;;;;;5050473;28;20059;-52
2021/01/30 02:41:49;;;;;;;3.85;1.85;;;;;;;;;;5050259;28;20025;-40
2021/01/30 02:44:17;;;;;;;5.15;1.23;;;;;;;;;;5050715;28;20500;-40
2021/01/30 02:46:47;;;;;;;3.03;1.55;;;;;;;;;;5050658;28;20120;-40
2021/01/30 02:49:19;;;;;;;5.93;1.23;;;;;;;;;;5050143;28;20024;-40
2021/01/30 02:51:48;;;;;;;5.00;1.20;;;;;;;;;;5050393;28;20021;-40
2021/01/30 02:54:15;;;;;;;3.00;0.73;;;;;;;;;;5050020;28;20027;-58
2021/01/30 02:56:42;;;;;;;4.85;1.00;;;;;;;;;;5050103;28;20049;-58
2021/01/30 02:59:19;;;;;;;2.28;1.00;;;;;;;;;;5050542;28;20021;-54
2021/01/30 03:01:46;;;;;;;1.85;0.80;;;;;;;;;;5051940;28;20079;-60
2021/01/30 03:04:19;;;;;;;2.25;0.82;;;;;;;;;;5036127;28;20024;-51
2021/01/30 03:07:02;;;;;;;4.35;0.73;;;;;;;;;;5054114;28;20091;-62
2021/01/30 03:09:28;;;;;;;;;;;;;;;;;;5054252;28;20551;-59
2021/01/30 03:12:07;;;;;;;3.45;1.77;;;;;;;;;;5054105;28;19908;-57
2021/01/30 03:14:39;;;;;;;6.82;1.67;;;;;;;;;;5054283;28;20473;-59
2021/01/30 03:17:06;;;;;;;5.50;0.95;;;;;;;;;;5054085;28;20719;-58
2021/01/30 03:19:33;;;;;;;2.83;0.90;;;;;;;;;;5035878;28;20128;-58
2021/01/30 03:22:02;;;;;;;3.83;1.10;;;;;;;;;;5054080;28;20021;-56
2021/01/30 03:24:29;;;;;;;1.83;1.10;;;;;;;;;;5053102;28;20025;-57
2021/01/30 03:26:57;;;;;;;2.92;1.35;;;;;;;;;;5054184;28;20056;-57
2021/01/30 03:29:24;;;;;;;1.27;0.90;;;;;;;;;;5054307;28;20380;-54
2021/01/30 03:31:51;;;;;;;4.10;0.80;;;;;;;;;;5054196;28;20146;-39
2021/01/30 03:34:18;;;;;;;5.15;0.95;;;;;;;;;;5054053;28;20024;-55
2021/01/30 03:36:45;;;;;;;1.50;1.00;;;;;;;;;;5036055;28;20408;-44
2021/01/30 03:39:14;;;;;;;1.70;0.75;;;;;;;;;;5053856;28;20103;-55
2021/01/30 03:41:42;;;;;;;3.42;0.80;;;;;;;;;;5053864;28;20041;-52
2021/01/30 03:44:10;;;;;;;4.70;0.90;;;;;;;;;;5054245;28;20021;-43
2021/01/30 03:46:37;;;;;;;2.78;0.90;;;;;;;;;;5053598;28;20048;-59
2021/01/30 03:49:04;;;;;;;1.70;0.90;;;;;;;;;;5053554;28;20021;-49
2021/01/30 03:51:31;;;;;;;3.40;1.20;;;;;;;;;;5053834;28;20064;-38
2021/01/30 03:53:58;;;;;;;2.05;0.80;;;;;;;;;;5053788;28;20021;-48
2021/01/30 03:56:25;;;;;;;2.08;0.93;;;;;;;;;;5053383;28;20021;-54
2021/01/30 03:58:52;;;;;;;4.78;0.88;;;;;;;;;;5053479;28;20036;-50
2021/01/30 04:01:19;;;;;;;1.20;0.60;;;;;;;;;;5054058;28;20468;-57
2021/01/30 04:03:49;;;;;;;3.70;0.70;;;;;;;;;;5053881;28;20017;-58
2021/01/30 04:06:17;;;;;;;2.45;0.80;;;;;;;;;;5053465;28;20025;-58
2021/01/30 04:08:44;;;;;;;1.38;0.80;;;;;;;;;;5053613;28;20032;-57
2021/01/30 04:11:11;;;;;;;1.98;0.80;;;;;;;;;;5053713;28;20026;-52
2021/01/30 04:13:38;;;;;;;3.83;0.70;;;;;;;;;;5053267;28;20145;-46
2021/01/30 04:16:05;;;;;;;4.43;0.98;;;;;;;;;;5053822;28;20496;-38
2021/01/30 04:18:33;;;;;;;3.53;0.80;;;;;;;;;;5053160;28;20032;-40
2021/01/30 04:21:00;;;;;;;2.90;0.73;;;;;;;;;;5053372;28;20045;-55
2021/01/30 04:23:28;;;;;;;5.05;0.88;;;;;;;;;;5053794;28;20013;-56
2021/01/30 04:25:56;;;;;;;5.80;1.05;;;;;;;;;;5053588;28;20025;-58
2021/01/30 04:28:24;;;;;;;2.20;1.08;;;;;;;;;;5053712;28;20387;-58
2021/01/30 04:30:52;;;;;;;3.30;1.05;;;;;;;;;;5054206;28;20071;-57
2021/01/30 04:33:19;;;;;;;1.42;0.90;;;;;;;;;;5053849;28;20055;-45
2021/01/30 04:35:46;;;;;;;3.65;0.80;;;;;;;;;;5053876;28;20483;-58
2021/01/30 04:38:14;;;;;;;1.55;0.80;;;;;;;;;;5053966;28;20032;-59
2021/01/30 04:40:44;;;;;;;2.80;0.80;;;;;;;;;;5053859;28;20078;-59
2021/01/30 04:43:15;;;;;;;1.65;1.10;;;;;;;;;;5053803;28;20556;-38
2021/01/30 04:46:00;;;;;;;3.10;0.90;;;;;;;;;;5054058;28;20100;-38
2021/01/30 04:48:39;;;;;;;2.53;0.82;;;;;;;;;;5053889;28;20052;-38
2021/01/30 04:51:14;;;;;;;3.10;1.05;;;;;;;;;;5053874;28;20468;-38
2021/01/30 04:53:49;;;;;;;2.95;0.95;;;;;;;;;;5036630;28;20025;-45
2021/01/30 04:56:30;;;;;;;1.65;0.90;;;;;;;;;;5054000;28;20028;-40
2021/01/30 04:58:57;;;;;;;3.97;0.90;;;;;;;;;;5053583;28;20025;-54
2021/01/30 05:01:33;;;;;;;2.35;0.77;;;;;;;;;;5053328;28;20103;-43
2021/01/30 05:04:07;;;;;;;3.58;1.92;;;;;;;;;;5053699;28;20028;-50
2021/01/30 05:06:35;;;;;;;8.90;3.20;;;;;;;;;;5053503;28;20041;-38
2021/01/30 05:09:07;;;;;;;5.78;2.67;;;;;;;;;;5053435;28;20378;-48
2021/01/30 05:11:34;;;;;;;5.97;2.53;;;;;;;;;;5053271;28;20025;-40
2021/01/30 05:14:18;;;;;;;31.08;3.17;;;;;;;;;;5053526;28;20025;-39
2021/01/30 05:16:57;;;;;;;5.65;2.30;;;;;;;;;;5053256;28;20025;-55
2021/01/30 05:19:24;;;;;;;6.38;2.35;;;;;;;;;;5031855;28;20155;-40
2021/01/30 05:21:57;;;;;;;7.35;1.95;;;;;;;;;;5033096;28;20515;-38
2021/01/30 05:24:26;;;;;;;5.00;1.35;;;;;;;;;;5032775;28;20029;-43
2021/01/30 05:26:57;;;;;;;4.13;1.13;;;;;;;;;;5033173;28;20033;-38
2021/01/30 05:29:25;;;;;;;3.80;0.90;;;;;;;;;;5033416;28;20017;-43
2021/01/30 05:32:10;;;;;;;3.85;0.70;;;;;;;;;;5033233;28;20081;-40
2021/01/30 05:34:50;;;;;;;3.42;0.70;;;;;;;;;;5032857;28;20561;-47
2021/01/30 05:37:29;;;;;;;1.85;0.57;;;;;;;;;;5032912;28;20373;-48
2021/01/30 05:39:59;;;;;;;0.65;0.40;;;;;;;;;;5033067;28;20025;-45
2021/01/30 05:42:34;;;;;;;1.67;0.40;;;;;;;;;;5033049;28;20021;-38
2021/01/30 05:45:19;;;;;;;1.48;0.40;;;;;;;;;;5033218;28;20029;-53
2021/01/30 05:47:49;;;;;;;1.85;0.40;;;;;;;;;;5032928;28;20037;-42
2021/01/30 05:50:28;;;;;;;1.30;0.38;;;;;;;;;;5033005;28;20025;-38
2021/01/30 05:52:56;;;;;;;0.98;0.50;;;;;;;;;;5032967;28;20497;-42
2021/01/30 05:55:27;;;;;;;0.85;0.40;;;;;;;;;;5032551;28;20580;-45
2021/01/30 05:57:56;;;;;;;2.15;0.40;;;;;;;;;;5032799;28;20021;-48
2021/01/30 06:00:25;;;;;;;0.80;0.30;;;;;;;;;;5031489;28;20076;-58
2021/01/30 06:03:06;;;;;;;2.15;0.50;;;;;;;;;;5032326;28;20393;-49
2021/01/30 06:05:38;;;;;;;1.45;0.40;;;;;;;;;;5032680;28;20025;-50
2021/01/30 06:08:09;;;;;;;1.00;0.40;;;;;;;;;;5032711;28;20026;-58
2021/01/30 06:10:36;;;;;;;1.45;0.30;;;;;;;;;;5033041;28;20017;-58
2021/01/30 06:13:12;;;;;;;0.77;0.38;;;;;;;;;;5032822;28;20029;-58
2021/01/30 06:15:41;;;;;;;1.30;0.60;;;;;;;;;;5032773;28;20075;-58
2021/01/30 06:18:26;;;;;;;2.40;0.95;;;;;;;;;;5032780;28;20025;-55
2021/01/30 06:21:02;;;;;;;3.75;0.70;;;;;;;;;;5050371;28;20053;-57
2021/01/30 06:23:29;;;;;;;1.30;0.57;;;;;;;;;;5052779;28;20103;-58
2021/01/30 06:26:15;;;;;;;3.40;0.98;;;;;;;;;;5052288;28;20456;-54
2021/01/30 06:28:45;;;;;;;3.47;1.92;;;;;;;;;;5052470;28;20483;-59
2021/01/30 06:31:19;;;;;;;1.85;0.75;;;;;;;;;;5052274;28;20991;-54
2021/01/30 06:33:47;;;;;;;1.45;0.70;;;;;;;;;;5052550;28;20405;-56
2021/01/30 06:36:18;;;;;;;2.53;0.70;;;;;;;;;;5051566;28;20013;-58
2021/01/30 06:38:48;;;;;;;0.80;0.50;;;;;;;;;;5052355;28;20021;-56
2021/01/30 06:41:21;;;;;;;0.80;0.40;;;;;;;;;;5052345;28;20473;-58
2021/01/30 06:43:51;;;;;;;0.70;0.20;;;;;;;;;;5052509;28;20666;-41
2021/01/30 06:46:20;;;;;;;1.17;0.40;;;;;;;;;;5052211;28;20113;-42
2021/01/30 06:48:48;;;;;;;0.85;0.40;;;;;;;;;;5052147;28;20051;-41
2021/01/30 06:51:36;;;;;;;0.65;0.25;;;;;;;;;;5052282;28;20025;-42
2021/01/30 06:54:23;;;;;;;1.95;0.43;;;;;;;;;;5052252;28;20083;-47
2021/01/30 06:57:01;;;;;;;3.60;0.57;;;;;;;;;;5052210;28;20157;-43
2021/01/30 06:59:30;;;;;;;1.05;0.30;;;;;;;;;;5052117;28;20028;-40
2021/01/30 07:01:57;;;;;;;4.63;0.50;;;;;;;;;;5052155;28;20021;-43
2021/01/30 07:04:27;;;;;;;0.85;0.35;;;;;;;;;;5052212;28;20472;-48
2021/01/30 07:07:12;;;;;;;0.80;0.40;;;;;;;;;;5051971;28;20037;-43
2021/01/30 07:09:39;;;;;;;2.28;0.55;;;;;;;;;;5052047;28;20082;-39
2021/01/30 07:12:14;;;;;;;0.85;0.30;;;;;;;;;;5052008;28;20025;-42
2021/01/30 07:14:41;;;;;;;1.08;0.30;;;;;;;;;;5052064;28;20071;-52
2021/01/30 07:17:23;;;;;;;2.45;0.50;;;;;;;;;;5052009;28;20024;-42
2021/01/30 07:20:06;;;;;;;0.82;0.45;;;;;;;;;;5051706;28;20087;-47
2021/01/30 07:22:53;;;;;;;2.63;0.40;;;;;;;;;;5051935;28;20384;-47
2021/01/30 07:25:40;;;;;;;0.55;0.20;;;;;;;;;;5021096;28;20060;-44
2021/01/30 07:28:19;;;;;;;1.55;0.20;;;;;;;;;;5051662;28;20025;-48
2021/01/30 07:31:00;;;;;;;1.15;0.30;;;;;;;;;;5051836;28;20025;-48
2021/01/30 07:33:40;;;;;;;1.27;0.43;;;;;;;;;;5051884;28;20017;-48
2021/01/30 07:36:16;;;;;;;0.88;0.30;;;;;;;;;;5052001;28;20028;-41
2021/01/30 07:38:43;;;;;;;2.55;0.30;;;;;;;;;;5033856;28;20029;-48
2021/01/30 07:41:25;;;;;;;0.70;0.25;;;;;;;;;;5051610;28;20025;-42
2021/01/30 07:44:10;;;;;;;1.02;0.40;;;;;;;;;;5051651;28;20029;-44
2021/01/30 07:46:41;;;;;;;0.30;0.13;;;;;;;;;;5051557;28;20523;-49
2021/01/30 07:49:21;;;;;;;2.92;0.35;;;;;;;;;;5054951;28;20092;-42
2021/01/30 07:51:57;;;;;;;2.20;0.40;;;;;;;;;;5055557;28;20108;-44
2021/01/30 07:54:24;;;;;;;3.30;0.38;;;;;;;;;;5055597;28;20017;-41
2021/01/30 07:57:04;;;;;;;0.93;0.40;;;;;;;;;;5055343;28;20075;-49
2021/01/30 07:59:36;;;;;;;0.38;0.25;;;;;;;;;;5055141;28;20021;-40
2021/01/30 08:02:15;;;;;;;2.22;0.30;;;;;;;;;;5055272;28;20029;-43
2021/01/30 08:04:58;;;;;;;4.30;0.47;;;;;;;;;;5055175;28;20033;-50
2021/01/30 08:07:24;;;;;;;;;;;;;;;;;;5055331;28;20123;-46
2021/01/30 08:09:54;;;;;;;2.63;0.60;;;;;;;;;;5055198;28;20311;-43
2021/01/30 08:12:48;;;;;;;1.15;0.32;;;;;;;;;;5054876;28;20017;-44
2021/01/30 08:15:19;;;;;;;3.08;0.30;;;;;;;;;;5055113;28;20108;-45
2021/01/30 08:17:52;;;;;;;3.03;0.40;;;;;;;;;;5054795;28;20025;-46
2021/01/30 08:20:30;;;;;;;1.13;0.30;;;;;;;;;;5054548;28;20516;-39
2021/01/30 08:22:57;;;;;;;2.22;0.35;;;;;;;;;;5054801;28;20079;-46
2021/01/30 08:25:31;;;;;;;2.38;0.40;;;;;;;;;;5054937;28;20079;-48
2021/01/30 08:28:02;;;;;;;1.38;0.40;;;;;;;;;;5054687;28;20029;-43
2021/01/30 08:30:30;;;;;;;1.17;0.60;;;;;;;;;;5054714;28;20477;-42
2021/01/30 08:33:05;;;;;;;3.78;0.85;;;;;;;;;;5054756;28;20059;-40
2021/01/30 08:35:32;;;;;;;1.73;0.70;;;;;;;;;;5054772;28;20025;-50
2021/01/30 08:37:59;;;;;;;2.35;0.90;;;;;;;;;;5054502;28;20025;-41
2021/01/30 08:40:44;;;;;;;4.90;1.10;;;;;;;;;;5054518;28;20017;-48
2021/01/30 08:43:16;;;;;;;6.45;1.08;;;;;;;;;;5054375;28;20075;-40
2021/01/30 08:45:43;;;;;;;4.50;1.20;;;;;;;;;;5054422;28;20056;-42
2021/01/30 08:48:25;;;;;;;4.90;1.10;;;;;;;;;;5054254;28;20021;-44
2021/01/30 08:50:54;;;;;;;4.57;1.00;;;;;;;;;;5054230;28;20021;-48
2021/01/30 08:53:24;;;;;;;4.18;1.10;;;;;;;;;;5036550;28;20015;-43
2021/01/30 08:55:55;;;;;;;3.20;1.08;;;;;;;;;;5054505;28;20033;-48
2021/01/30 08:58:37;;;;;;;2.23;0.87;;;;;;;;;;5053776;28;20009;-44
2021/01/30 09:01:22;;;;;;;4.63;1.35;;;;;;;;;;5053969;28;20262;-42
2021/01/30 09:03:50;;;;;;;3.97;1.52;;;;;;;;;;5054206;28;20041;-45
2021/01/30 09:06:35;;;;;;;3.92;1.55;;;;;;;;;;5053901;28;20391;-41
2021/01/30 09:09:05;;;;;;;3.20;1.40;;;;;;;;;;5053715;28;20017;-42
2021/01/30 09:11:37;;;;;;;2.70;1.23;;;;;;;;;;5053884;28;20037;-42
2021/01/30 09:14:03;;;;;;;;;;;;;;;;;;5054530;28;20045;-43
2021/01/30 09:16:44;;;;;;;4.78;1.40;;;;;;;;;;5053822;28;19916;-46
2021/01/30 09:19:15;;;;;;;3.65;1.50;;;;;;;;;;5053292;28;20454;-44
2021/01/30 09:21:53;;;;;;;4.70;1.50;;;;;;;;;;5053641;28;20104;-58
2021/01/30 09:24:23;;;;;;;5.85;1.33;;;;;;;;;;5053667;28;20044;-58
2021/01/30 09:26:50;;;;;;;5.50;1.10;;;;;;;;;;5053647;28;20044;-59
2021/01/30 09:29:20;;;;;;;3.28;0.95;;;;;;;;;;5053484;28;20017;-58
2021/01/30 09:31:47;;;;;;;4.10;1.30;;;;;;;;;;5053346;28;20104;-41
2021/01/30 09:34:14;;;;;;;2.47;1.13;;;;;;;;;;5053437;28;20028;-58
2021/01/30 09:36:44;;;;;;;4.70;1.23;;;;;;;;;;5053426;28;20021;-55
2021/01/30 09:39:41;;;;;;;2.15;1.00;;;;;;;;;;5053334;28;20101;-57
2021/01/30 09:42:14;;;;;;;2.95;0.90;;;;;;;;;;5040533;28;20065;-58
2021/01/30 09:44:41;;;;;;;2.38;1.30;;;;;;;;;;5053022;28;20024;-58
2021/01/30 09:47:14;;;;;;;3.53;0.95;;;;;;;;;;5053386;28;20033;-58
2021/01/30 09:49:40;;;;;;;;;;;;;;;;;;5053629;28;20025;-52
2021/01/30 09:52:07;;;;;;;3.33;1.00;;;;;;;;;;5053157;28;19912;-53
2021/01/30 09:54:35;;;;;;;1.80;0.90;;;;;;;;;;5053082;28;20029;-58
2021/01/30 09:57:07;;;;;;;5.45;1.05;;;;;;;;;;5053088;28;20013;-58
2021/01/30 09:59:34;;;;;;;5.55;1.25;;;;;;;;;;5052890;28;20021;-56
2021/01/30 10:02:27;;;;;;;1.95;1.00;;;;;;;;;;5052901;28;20013;-59
2021/01/30 10:05:06;;;;;;;2.90;1.05;;;;;;;;;;5050203;28;20118;-40
2021/01/30 10:07:34;;;;;;;3.97;1.20;;;;;;;;;;5052620;28;20036;-41
2021/01/30 10:10:01;;;;;;;2.97;0.90;;;;;;;;;;5052540;28;20361;-40
2021/01/30 10:12:33;;;;;;;3.70;1.23;;;;;;;;;;5052807;28;20025;-40
2021/01/30 10:14:59;;;;;;;;;;;;;;;;;;5053127;28;20036;-40
2021/01/30 10:17:29;;;;;;;2.30;0.98;;;;;;;;;;5034857;28;19916;-41
2021/01/30 10:20:08;;;;;;;2.47;0.88;;;;;;;;;;5052596;28;20091;-41
2021/01/30 10:22:36;;;;;;;1.70;0.85;;;;;;;;;;5052490;28;20025;-40
2021/01/30 10:25:06;;;;;;;3.92;1.00;;;;;;;;;;5052644;28;20017;-47
2021/01/30 10:27:33;;;;;;;2.78;0.95;;;;;;;;;;5052343;28;20119;-47
2021/01/30 10:30:00;;;;;;;5.07;1.20;;;;;;;;;;5052632;28;20029;-39
2021/01/30 10:32:36;;;;;;;3.88;1.13;;;;;;;;;;5052362;28;20029;-41
2021/01/30 10:35:09;;;;;;;2.42;0.80;;;;;;;;;;5052431;28;20048;-41
2021/01/30 10:37:41;;;;;;;2.53;1.10;;;;;;;;;;5034781;28;20478;-40
2021/01/30 10:40:32;;;;;;;2.15;0.77;;;;;;;;;;5052658;28;20029;-52
2021/01/30 10:43:01;;;;;;;2.67;0.70;;;;;;;;;;5052361;28;20036;-44
2021/01/30 10:45:29;;;;;;;3.42;0.70;;;;;;;;;;5051999;28;20477;-50
2021/01/30 10:48:10;;;;;;;3.22;0.77;;;;;;;;;;5052176;28;20476;-48
2021/01/30 10:50:39;;;;;;;1.58;0.50;;;;;;;;;;5052266;28;20028;-50
2021/01/30 10:53:24;;;;;;;1.17;0.43;;;;;;;;;;5052377;28;20495;-49
2021/01/30 10:55:51;;;;;;;2.08;0.60;;;;;;;;;;5052405;28;20036;-56
2021/01/30 10:58:18;;;;;;;1.35;0.60;;;;;;;;;;5052077;28;20096;-53
2021/01/30 11:00:59;;;;;;;3.78;0.73;;;;;;;;;;5034262;28;20392;-56
2021/01/30 11:03:27;;;;;;;2.17;0.82;;;;;;;;;;5052187;28;20021;-47
2021/01/30 11:05:58;;;;;;;2.72;0.75;;;;;;;;;;5052390;28;20504;-40
2021/01/30 11:08:26;;;;;;;2.22;0.70;;;;;;;;;;5052319;28;20106;-40
2021/01/30 11:11:01;;;;;;;1.63;0.93;;;;;;;;;;5052035;28;20024;-40
2021/01/30 11:13:30;;;;;;;2.38;0.90;;;;;;;;;;5052043;28;20029;-40
2021/01/30 11:16:06;;;;;;;1.95;0.77;;;;;;;;;;5052245;28;20527;-39
2021/01/30 11:18:47;;;;;;;5.10;1.17;;;;;;;;;;5051839;28;20035;-40
2021/01/30 11:21:15;;;;;;;2.15;0.68;;;;;;;;;;5051780;28;20048;-40
2021/01/30 11:23:46;;;;;;;2.33;0.50;;;;;;;;;;5054801;28;20025;-42
2021/01/30 11:26:14;;;;;;;1.48;0.88;;;;;;;;;;5056094;28;20029;-56
2021/01/30 11:28:41;;;;;;;2.80;0.60;;;;;;;;;;5055910;28;20032;-50
2021/01/30 11:31:10;;;;;;;2.47;0.90;;;;;;;;;;5055846;28;20500;-51
2021/01/30 11:33:37;;;;;;;2.28;0.75;;;;;;;;;;5055709;28;20100;-56
2021/01/30 11:36:05;;;;;;;1.33;0.70;;;;;;;;;;5038242;28;20032;-49
2021/01/30 11:38:32;;;;;;;2.20;0.80;;;;;;;;;;5055644;28;20021;-58
2021/01/30 11:41:00;;;;;;;4.30;0.95;;;;;;;;;;5055572;28;20017;-49
2021/01/30 11:43:27;;;;;;;2.80;1.08;;;;;;;;;;5055714;28;20017;-46
2021/01/30 11:45:55;;;;;;;2.50;0.73;;;;;;;;;;5055573;28;20108;-45
2021/01/30 11:48:23;;;;;;;3.63;1.00;;;;;;;;;;5055203;28;20052;-51
2021/01/30 11:50:51;;;;;;;3.65;0.60;;;;;;;;;;5055548;28;20461;-41
2021/01/30 11:53:19;;;;;;;1.60;0.47;;;;;;;;;;5055419;28;20067;-44
2021/01/30 11:55:47;;;;;;;1.58;0.63;;;;;;;;;;5037516;28;20025;-40
2021/01/30 11:58:14;;;;;;;0.93;0.40;;;;;;;;;;5055411;28;20021;-44
2021/01/30 12:00:41;;;;;;;2.05;0.40;;;;;;;;;;5055190;28;20021;-45
2021/01/30 12:03:12;;;;;;;2.80;0.57;;;;;;;;;;5055172;28;20029;-42
2021/01/30 12:05:39;;;;;;;4.82;0.73;;;;;;;;;;5055004;28;20053;-42
2021/01/30 12:08:06;;;;;;;3.58;0.60;;;;;;;;;;5055175;28;20025;-40
2021/01/30 12:10:33;;;;;;;0.98;0.47;;;;;;;;;;5055107;28;20472;-45
2021/01/30 12:13:00;;;;;;;1.75;0.60;;;;;;;;;;5054967;28;20071;-56
2021/01/30 12:15:27;;;;;;;3.22;0.65;;;;;;;;;;5055118;28;20044;-42
2021/01/30 12:17:54;;;;;;;6.80;0.90;;;;;;;;;;5054772;28;20032;-62
2021/01/30 12:20:26;;;;;;;2.97;1.00;;;;;;;;;;5054552;28;20447;-58
2021/01/30 12:22:53;;;;;;;2.47;0.93;;;;;;;;;;5037174;28;20052;-46
2021/01/30 12:25:20;;;;;;;4.68;0.90;;;;;;;;;;5054744;28;20272;-41
2021/01/30 12:27:51;;;;;;;3.65;0.68;;;;;;;;;;5054742;28;20480;-41
2021/01/30 12:30:21;;;;;;;2.22;0.50;;;;;;;;;;5054810;28;20022;-40
2021/01/30 12:32:49;;;;;;;4.65;0.57;;;;;;;;;;5054401;28;20024;-38
2021/01/30 12:35:16;;;;;;;3.20;0.68;;;;;;;;;;5054498;28;20368;-41
2021/01/30 12:37:43;;;;;;;3.42;0.70;;;;;;;;;;5054586;28;20017;-40
2021/01/30 12:40:11;;;;;;;2.08;1.00;;;;;;;;;;5054485;28;20071;-43
2021/01/30 12:42:38;;;;;;;2.40;0.60;;;;;;;;;;5054489;28;20017;-41
2021/01/30 12:45:06;;;;;;;3.67;0.90;;;;;;;;;;5054348;28;20052;-41
2021/01/30 12:47:34;;;;;;;3.55;0.77;;;;;;;;;;5054211;28;20029;-40
2021/01/30 12:50:00;;;;;;;3.53;0.98;;;;;;;;;;5054334;28;20020;-44
2021/01/30 12:52:27;;;;;;;3.97;0.88;;;;;;;;;;5054040;28;20013;-59
2021/01/30 12:54:54;;;;;;;4.78;0.70;;;;;;;;;;5054321;28;20025;-63
2021/01/30 12:57:22;;;;;;;7.90;1.08;;;;;;;;;;5054159;28;20017;-60
2021/01/30 12:59:49;;;;;;;3.38;1.15;;;;;;;;;;5053954;28;20029;-62
2021/01/30 13:02:15;;;;;;;6.13;1.20;;;;;;;;;;5054263;28;20031;-63
2021/01/30 13:04:43;;;;;;;7.97;1.77;;;;;;;;;;5053986;28;20025;-55
2021/01/30 13:07:10;;;;;;;5.68;1.40;;;;;;;;;;5053865;28;20033;-55
2021/01/30 13:09:37;;;;;;;5.50;1.33;;;;;;;;;;5054119;28;20021;-54
2021/01/30 13:12:04;;;;;;;5.03;1.38;;;;;;;;;;5053862;28;20389;-47
2021/01/30 13:14:31;;;;;;;8.15;1.75;;;;;;;;;;5053713;28;20021;-50
2021/01/30 13:16:58;;;;;;;9.55;2.22;;;;;;;;;;5053644;28;20024;-38
2021/01/30 13:19:25;;;;;;;7.82;1.75;;;;;;;;;;5053045;28;20489;-60
2021/01/30 13:21:52;;;;;;;8.57;1.55;;;;;;;;;;5052806;28;20029;-59
2021/01/30 13:24:19;;;;;;;8.63;1.42;;;;;;;;;;5053443;28;20067;-57
2021/01/30 13:26:46;;;;;;;12.50;2.28;;;;;;;;;;5027142;28;20036;-43
2021/01/30 13:29:15;;;;;;;8.77;1.58;;;;;;;;;;5034731;28;20028;-38
2021/01/30 13:31:50;;;;;;;7.70;2.08;;;;;;;;;;5052120;28;20028;-40
2021/01/30 13:34:19;;;;;;;8.32;1.55;;;;;;;;;;5052682;28;20027;-39
2021/01/30 13:36:46;;;;;;;17.27;2.25;;;;;;;;;;5052028;28;20384;-40
2021/01/30 13:39:13;;;;;;;6.32;1.60;;;;;;;;;;5031532;28;20021;-39
2021/01/30 13:41:40;;;;;;;8.38;1.70;;;;;;;;;;5049344;28;20029;-39
2021/01/30 13:44:08;;;;;;;7.82;2.03;;;;;;;;;;5041872;28;20068;-40
2021/01/30 13:46:36;;;;;;;7.38;2.00;;;;;;;;;;5042648;28;20496;-39
2021/01/30 13:49:03;;;;;;;10.80;2.38;;;;;;;;;;5051513;28;20025;-39
2021/01/30 13:51:30;;;;;;;6.75;2.00;;;;;;;;;;5051491;28;20037;-39
2021/01/30 13:53:58;;;;;;;10.95;2.35;;;;;;;;;;5048263;28;20096;-41
2021/01/30 13:56:25;;;;;;;9.77;2.33;;;;;;;;;;5051271;28;20021;-40
2021/01/30 13:58:52;;;;;;;6.57;2.17;;;;;;;;;;5040310;28;20025;-43
2021/01/30 14:01:19;;;;;;;7.18;1.83;;;;;;;;;;5051661;28;20047;-41
2021/01/30 14:03:47;;;;;;;8.27;2.15;;;;;;;;;;5051661;28;20459;-40
2021/01/30 14:06:14;;;;;;;10.20;1.90;;;;;;;;;;5051753;28;20033;-39
2021/01/30 14:08:41;;;;;;;8.82;1.73;;;;;;;;;;5049468;28;20017;-39
2021/01/30 14:11:08;;;;;;;8.45;1.95;;;;;;;;;;5049384;28;20111;-39
2021/01/30 14:13:35;;;;;;;11.38;2.65;;;;;;;;;;5050814;28;20520;-39
2021/01/30 14:16:02;;;;;;;9.73;2.83;;;;;;;;;;5050026;28;20103;-44
2021/01/30 14:18:29;;;;;;;11.30;2.58;;;;;;;;;;5050098;28;20025;-44
2021/01/30 14:20:56;;;;;;;13.30;2.42;;;;;;;;;;5050165;28;20033;-58
2021/01/30 14:23:23;;;;;;;11.43;2.00;;;;;;;;;;5050486;28;20485;-38
2021/01/30 14:25:50;;;;;;;12.65;2.65;;;;;;;;;;5051690;28;20397;-38
2021/01/30 14:28:17;;;;;;;12.45;2.08;;;;;;;;;;5051040;28;20100;-38
2021/01/30 14:30:45;;;;;;;7.72;2.20;;;;;;;;;;5050946;28;20055;-38
2021/01/30 14:33:12;;;;;;;10.43;2.15;;;;;;;;;;5048959;28;20535;-40
2021/01/30 14:35:39;;;;;;;8.25;2.15;;;;;;;;;;5050860;28;20033;-39
2021/01/30 14:38:07;;;;;;;8.93;2.35;;;;;;;;;;5048657;28;20020;-41
2021/01/30 14:40:36;;;;;;;8.15;2.15;;;;;;;;;;5050817;28;20044;-40
2021/01/30 14:43:03;;;;;;;8.82;2.15;;;;;;;;;;5050152;28;20040;-42
2021/01/30 14:45:30;;;;;;;8.07;2.08;;;;;;;;;;5049992;28;20233;-40
2021/01/30 14:47:57;;;;;;;8.35;2.17;;;;;;;;;;5050435;28;20019;-39
2021/01/30 14:50:24;;;;;;;10.40;2.08;;;;;;;;;;5050961;28;20025;-40
2021/01/30 14:52:52;;;;;;;11.07;2.00;;;;;;;;;;5033570;28;20070;-41
2021/01/30 14:55:19;;;;;;;8.40;1.98;;;;;;;;;;5051030;28;20033;-41
2021/01/30 14:57:46;;;;;;;7.32;2.05;;;;;;;;;;5052538;28;20021;-38
2021/01/30 15:00:15;;;;;;;9.90;2.75;;;;;;;;;;5034249;28;20025;-39
2021/01/30 15:02:42;;;;;;;13.60;3.10;;;;;;;;;;5054450;28;20017;-40
2021/01/30 15:05:12;;;;;;;12.25;2.42;;;;;;;;;;5054801;28;20162;-38